sensor_id;sensor_type;location;lat;lon;timestamp;P1;durP1;ratioP1;P2;durP2;ratioP2
13435;SDS011;6790;49.520;8.504;2023-10-13T00:01:56;13.60;;;11.90;;
13435;SDS011;6790;49.520;8.504;2023-10-13T00:04:28;19.20;;;17.70;;
13435;SDS011;6790;49.520;8.504;2023-10-13T00:06:56;26.03;;;24.00;;
13435;SDS011;6790;49.520;8.504;2023-10-13T00:09:25;25.97;;;23.73;;
13435;SDS011;6790;49.520;8.504;2023-10-13T00:11:57;16.50;;;15.33;;
13435;SDS011;6790;49.520;8.504;2023-10-13T00:14:26;28.43;;;26.23;;
13435;SDS011;6790;49.520;8.504;2023-10-13T00:16:59;26.77;;;24.67;;
13435;SDS011;6790;49.520;8.504;2023-10-13T00:19:30;15.30;;;14.00;;
13435;SDS011;6790;49.520;8.504;2023-10-13T00:22:07;15.83;;;14.20;;
13435;SDS011;6790;49.520;8.504;2023-10-13T00:24:37;16.40;;;14.60;;
13435;SDS011;6790;49.520;8.504;2023-10-13T00:27:19;19.67;;;18.00;;
13435;SDS011;6790;49.520;8.504;2023-10-13T00:29:59;23.40;;;21.47;;
13435;SDS011;6790;49.520;8.504;2023-10-13T00:32:46;20.03;;;18.40;;
13435;SDS011;6790;49.520;8.504;2023-10-13T00:35:20;20.17;;;18.33;;
13435;SDS011;6790;49.520;8.504;2023-10-13T00:37:53;27.80;;;25.83;;
13435;SDS011;6790;49.520;8.504;2023-10-13T00:40:20;25.00;;;23.07;;
13435;SDS011;6790;49.520;8.504;2023-10-13T00:42:55;17.90;;;16.43;;
13435;SDS011;6790;49.520;8.504;2023-10-13T00:45:41;22.17;;;20.30;;
13435;SDS011;6790;49.520;8.504;2023-10-13T00:48:29;18.43;;;16.80;;
13435;SDS011;6790;49.520;8.504;2023-10-13T00:51:03;20.10;;;18.60;;
13435;SDS011;6790;49.520;8.504;2023-10-13T00:53:33;23.23;;;21.53;;
13435;SDS011;6790;49.520;8.504;2023-10-13T00:56:05;20.37;;;18.87;;
13435;SDS011;6790;49.520;8.504;2023-10-13T00:58:35;23.27;;;21.60;;
13435;SDS011;6790;49.520;8.504;2023-10-13T01:01:05;28.13;;;25.93;;
13435;SDS011;6790;49.520;8.504;2023-10-13T01:03:46;18.60;;;16.90;;
13435;SDS011;6790;49.520;8.504;2023-10-13T01:06:15;21.10;;;19.37;;
13435;SDS011;6790;49.520;8.504;2023-10-13T01:08:45;18.53;;;16.70;;
13435;SDS011;6790;49.520;8.504;2023-10-13T01:11:18;21.13;;;19.40;;
13435;SDS011;6790;49.520;8.504;2023-10-13T01:13:44;21.10;;;19.53;;
13435;SDS011;6790;49.520;8.504;2023-10-13T01:16:16;15.43;;;14.10;;
13435;SDS011;6790;49.520;8.504;2023-10-13T01:18:48;19.90;;;18.27;;
13435;SDS011;6790;49.520;8.504;2023-10-13T01:21:15;19.77;;;18.07;;
13435;SDS011;6790;49.520;8.504;2023-10-13T01:23:45;20.77;;;19.10;;
13435;SDS011;6790;49.520;8.504;2023-10-13T01:26:12;20.73;;;18.63;;
13435;SDS011;6790;49.520;8.504;2023-10-13T01:28:46;20.10;;;18.57;;
13435;SDS011;6790;49.520;8.504;2023-10-13T01:31:13;25.63;;;23.67;;
13435;SDS011;6790;49.520;8.504;2023-10-13T01:33:49;18.80;;;17.00;;
13435;SDS011;6790;49.520;8.504;2023-10-13T01:36:19;16.23;;;14.67;;
13435;SDS011;6790;49.520;8.504;2023-10-13T01:38:46;21.93;;;19.93;;
13435;SDS011;6790;49.520;8.504;2023-10-13T01:41:13;23.40;;;21.50;;
13435;SDS011;6790;49.520;8.504;2023-10-13T01:43:39;16.90;;;15.37;;
13435;SDS011;6790;49.520;8.504;2023-10-13T01:46:05;17.17;;;15.70;;
13435;SDS011;6790;49.520;8.504;2023-10-13T01:48:31;20.37;;;18.70;;
13435;SDS011;6790;49.520;8.504;2023-10-13T01:51:03;15.13;;;13.87;;
13435;SDS011;6790;49.520;8.504;2023-10-13T01:53:31;15.03;;;13.73;;
13435;SDS011;6790;49.520;8.504;2023-10-13T01:55:57;16.30;;;14.87;;
13435;SDS011;6790;49.520;8.504;2023-10-13T01:58:23;17.70;;;16.20;;
13435;SDS011;6790;49.520;8.504;2023-10-13T02:00:51;23.90;;;22.10;;
13435;SDS011;6790;49.520;8.504;2023-10-13T02:03:17;20.63;;;19.00;;
13435;SDS011;6790;49.520;8.504;2023-10-13T02:05:43;22.33;;;20.60;;
13435;SDS011;6790;49.520;8.504;2023-10-13T02:08:22;22.30;;;20.27;;
13435;SDS011;6790;49.520;8.504;2023-10-13T02:10:53;13.90;;;12.73;;
13435;SDS011;6790;49.520;8.504;2023-10-13T02:13:20;22.90;;;20.90;;
13435;SDS011;6790;49.520;8.504;2023-10-13T02:15:47;16.60;;;15.03;;
13435;SDS011;6790;49.520;8.504;2023-10-13T02:18:16;16.70;;;14.97;;
13435;SDS011;6790;49.520;8.504;2023-10-13T02:20:46;14.87;;;13.57;;
13435;SDS011;6790;49.520;8.504;2023-10-13T02:23:19;22.23;;;20.40;;
13435;SDS011;6790;49.520;8.504;2023-10-13T02:25:49;19.03;;;17.37;;
13435;SDS011;6790;49.520;8.504;2023-10-13T02:28:26;16.50;;;15.00;;
13435;SDS011;6790;49.520;8.504;2023-10-13T02:30:55;19.60;;;17.77;;
13435;SDS011;6790;49.520;8.504;2023-10-13T02:33:22;14.87;;;13.67;;
13435;SDS011;6790;49.520;8.504;2023-10-13T02:35:55;17.73;;;16.17;;
13435;SDS011;6790;49.520;8.504;2023-10-13T02:38:30;14.33;;;11.30;;
13435;SDS011;6790;49.520;8.504;2023-10-13T02:41:12;10.30;;;9.30;;
13435;SDS011;6790;49.520;8.504;2023-10-13T02:43:53;13.03;;;11.67;;
13435;SDS011;6790;49.520;8.504;2023-10-13T02:46:20;11.87;;;10.70;;
13435;SDS011;6790;49.520;8.504;2023-10-13T02:48:48;14.53;;;13.40;;
13435;SDS011;6790;49.520;8.504;2023-10-13T02:51:22;11.90;;;10.77;;
13435;SDS011;6790;49.520;8.504;2023-10-13T02:54:00;17.07;;;15.70;;
13435;SDS011;6790;49.520;8.504;2023-10-13T02:56:35;15.87;;;14.30;;
13435;SDS011;6790;49.520;8.504;2023-10-13T02:59:02;13.43;;;12.13;;
13435;SDS011;6790;49.520;8.504;2023-10-13T03:01:34;17.73;;;15.93;;
13435;SDS011;6790;49.520;8.504;2023-10-13T03:04:04;15.33;;;14.00;;
13435;SDS011;6790;49.520;8.504;2023-10-13T03:06:33;17.67;;;16.33;;
13435;SDS011;6790;49.520;8.504;2023-10-13T03:09:01;16.80;;;15.33;;
13435;SDS011;6790;49.520;8.504;2023-10-13T03:11:42;15.70;;;14.37;;
13435;SDS011;6790;49.520;8.504;2023-10-13T03:19:18;18.63;;;17.17;;
13435;SDS011;6790;49.520;8.504;2023-10-13T03:21:47;15.03;;;13.63;;
13435;SDS011;6790;49.520;8.504;2023-10-13T03:24:30;16.90;;;15.30;;
13435;SDS011;6790;49.520;8.504;2023-10-13T03:26:59;20.73;;;18.97;;
13435;SDS011;6790;49.520;8.504;2023-10-13T03:29:37;17.27;;;15.67;;
13435;SDS011;6790;49.520;8.504;2023-10-13T03:32:08;13.70;;;11.87;;
13435;SDS011;6790;49.520;8.504;2023-10-13T03:34:40;11.47;;;10.37;;
13435;SDS011;6790;49.520;8.504;2023-10-13T03:37:16;16.20;;;14.70;;
13435;SDS011;6790;49.520;8.504;2023-10-13T03:39:44;16.83;;;15.40;;
13435;SDS011;6790;49.520;8.504;2023-10-13T03:42:10;18.30;;;17.00;;
13435;SDS011;6790;49.520;8.504;2023-10-13T03:44:46;19.80;;;18.20;;
13435;SDS011;6790;49.520;8.504;2023-10-13T03:47:12;17.40;;;16.17;;
13435;SDS011;6790;49.520;8.504;2023-10-13T03:49:51;14.27;;;13.20;;
13435;SDS011;6790;49.520;8.504;2023-10-13T03:52:38;16.00;;;14.57;;
13435;SDS011;6790;49.520;8.504;2023-10-13T03:55:04;21.67;;;19.97;;
13435;SDS011;6790;49.520;8.504;2023-10-13T03:57:31;14.13;;;12.77;;
13435;SDS011;6790;49.520;8.504;2023-10-13T03:59:59;14.23;;;12.97;;
13435;SDS011;6790;49.520;8.504;2023-10-13T04:02:33;13.50;;;12.33;;
13435;SDS011;6790;49.520;8.504;2023-10-13T04:04:58;13.47;;;12.13;;
13435;SDS011;6790;49.520;8.504;2023-10-13T04:07:32;19.67;;;17.70;;
13435;SDS011;6790;49.520;8.504;2023-10-13T04:10:04;12.63;;;11.00;;
13435;SDS011;6790;49.520;8.504;2023-10-13T04:13:04;13.47;;;12.27;;
13435;SDS011;6790;49.520;8.504;2023-10-13T04:15:48;15.90;;;14.70;;
13435;SDS011;6790;49.520;8.504;2023-10-13T04:18:32;16.03;;;14.50;;
13435;SDS011;6790;49.520;8.504;2023-10-13T04:21:16;16.77;;;15.37;;
13435;SDS011;6790;49.520;8.504;2023-10-13T04:26:44;17.10;;;15.70;;
13435;SDS011;6790;49.520;8.504;2023-10-13T04:29:29;16.57;;;15.07;;
13435;SDS011;6790;49.520;8.504;2023-10-13T04:32:16;12.63;;;11.53;;
13435;SDS011;6790;49.520;8.504;2023-10-13T04:35:05;16.33;;;14.90;;
13435;SDS011;6790;49.520;8.504;2023-10-13T04:37:42;9.17;;;8.03;;
13435;SDS011;6790;49.520;8.504;2023-10-13T04:40:26;14.40;;;10.67;;
13435;SDS011;6790;49.520;8.504;2023-10-13T04:43:00;13.17;;;12.10;;
13435;SDS011;6790;49.520;8.504;2023-10-13T04:45:51;15.30;;;13.83;;
13435;SDS011;6790;49.520;8.504;2023-10-13T04:48:20;14.77;;;13.23;;
13435;SDS011;6790;49.520;8.504;2023-10-13T04:50:48;14.60;;;13.43;;
13435;SDS011;6790;49.520;8.504;2023-10-13T04:53:24;11.17;;;10.17;;
13435;SDS011;6790;49.520;8.504;2023-10-13T04:55:52;16.50;;;14.73;;
13435;SDS011;6790;49.520;8.504;2023-10-13T04:58:44;12.23;;;11.13;;
13435;SDS011;6790;49.520;8.504;2023-10-13T05:01:28;14.67;;;13.30;;
13435;SDS011;6790;49.520;8.504;2023-10-13T05:03:54;20.23;;;18.53;;
13435;SDS011;6790;49.520;8.504;2023-10-13T05:06:34;23.30;;;20.70;;
13435;SDS011;6790;49.520;8.504;2023-10-13T05:09:09;16.90;;;15.53;;
13435;SDS011;6790;49.520;8.504;2023-10-13T05:11:55;11.17;;;10.07;;
13435;SDS011;6790;49.520;8.504;2023-10-13T05:14:59;10.07;;;9.07;;
13435;SDS011;6790;49.520;8.504;2023-10-13T05:17:43;13.77;;;11.37;;
13435;SDS011;6790;49.520;8.504;2023-10-13T05:20:27;12.20;;;11.00;;
13435;SDS011;6790;49.520;8.504;2023-10-13T05:23:12;11.00;;;9.90;;
13435;SDS011;6790;49.520;8.504;2023-10-13T05:25:55;8.53;;;7.00;;
13435;SDS011;6790;49.520;8.504;2023-10-13T05:28:55;10.03;;;9.20;;
13435;SDS011;6790;49.520;8.504;2023-10-13T05:31:39;10.60;;;9.53;;
13435;SDS011;6790;49.520;8.504;2023-10-13T05:34:23;9.27;;;8.43;;
13435;SDS011;6790;49.520;8.504;2023-10-13T05:37:07;10.87;;;9.77;;
13435;SDS011;6790;49.520;8.504;2023-10-13T05:39:52;9.90;;;9.03;;
13435;SDS011;6790;49.520;8.504;2023-10-13T05:42:36;9.27;;;7.97;;
13435;SDS011;6790;49.520;8.504;2023-10-13T05:45:21;7.63;;;6.83;;
13435;SDS011;6790;49.520;8.504;2023-10-13T05:48:01;10.80;;;7.43;;
13435;SDS011;6790;49.520;8.504;2023-10-13T05:50:38;14.93;;;13.83;;
13435;SDS011;6790;49.520;8.504;2023-10-13T05:53:43;13.20;;;12.00;;
13435;SDS011;6790;49.520;8.504;2023-10-13T05:56:44;9.63;;;6.50;;
13435;SDS011;6790;49.520;8.504;2023-10-13T05:59:30;7.40;;;5.97;;
13435;SDS011;6790;49.520;8.504;2023-10-13T06:02:17;7.63;;;6.97;;
13435;SDS011;6790;49.520;8.504;2023-10-13T06:05:06;7.60;;;6.83;;
13435;SDS011;6790;49.520;8.504;2023-10-13T06:07:55;8.57;;;6.57;;
13435;SDS011;6790;49.520;8.504;2023-10-13T06:10:40;11.30;;;10.30;;
13435;SDS011;6790;49.520;8.504;2023-10-13T06:13:26;10.77;;;9.87;;
13435;SDS011;6790;49.520;8.504;2023-10-13T06:16:11;8.10;;;6.53;;
13435;SDS011;6790;49.520;8.504;2023-10-13T06:18:57;8.83;;;7.93;;
13435;SDS011;6790;49.520;8.504;2023-10-13T06:21:42;10.50;;;9.60;;
13435;SDS011;6790;49.520;8.504;2023-10-13T06:24:28;9.83;;;8.33;;
13435;SDS011;6790;49.520;8.504;2023-10-13T06:27:14;11.33;;;10.33;;
13435;SDS011;6790;49.520;8.504;2023-10-13T06:29:58;8.77;;;8.03;;
13435;SDS011;6790;49.520;8.504;2023-10-13T06:32:25;13.93;;;12.77;;
13435;SDS011;6790;49.520;8.504;2023-10-13T06:34:54;11.07;;;9.83;;
13435;SDS011;6790;49.520;8.504;2023-10-13T06:37:31;12.33;;;11.33;;
13435;SDS011;6790;49.520;8.504;2023-10-13T06:39:58;6.93;;;6.23;;
13435;SDS011;6790;49.520;8.504;2023-10-13T06:42:41;12.77;;;10.70;;
13435;SDS011;6790;49.520;8.504;2023-10-13T06:45:09;10.57;;;9.77;;
13435;SDS011;6790;49.520;8.504;2023-10-13T06:47:37;13.07;;;11.93;;
13435;SDS011;6790;49.520;8.504;2023-10-13T06:50:11;9.60;;;8.73;;
13435;SDS011;6790;49.520;8.504;2023-10-13T06:52:42;9.60;;;8.77;;
13435;SDS011;6790;49.520;8.504;2023-10-13T06:55:09;12.67;;;11.67;;
13435;SDS011;6790;49.520;8.504;2023-10-13T06:57:49;9.47;;;8.57;;
13435;SDS011;6790;49.520;8.504;2023-10-13T07:00:16;10.20;;;9.47;;
13435;SDS011;6790;49.520;8.504;2023-10-13T07:02:52;8.33;;;6.97;;
13435;SDS011;6790;49.520;8.504;2023-10-13T07:05:18;11.00;;;9.97;;
13435;SDS011;6790;49.520;8.504;2023-10-13T07:07:44;15.57;;;14.33;;
13435;SDS011;6790;49.520;8.504;2023-10-13T07:10:13;11.00;;;10.10;;
13435;SDS011;6790;49.520;8.504;2023-10-13T07:12:39;13.17;;;12.07;;
13435;SDS011;6790;49.520;8.504;2023-10-13T07:15:09;15.47;;;13.70;;
13435;SDS011;6790;49.520;8.504;2023-10-13T07:17:45;15.07;;;13.20;;
13435;SDS011;6790;49.520;8.504;2023-10-13T07:20:12;16.03;;;14.80;;
13435;SDS011;6790;49.520;8.504;2023-10-13T07:22:48;12.60;;;11.60;;
13435;SDS011;6790;49.520;8.504;2023-10-13T07:25:31;11.70;;;10.70;;
13435;SDS011;6790;49.520;8.504;2023-10-13T07:28:01;16.33;;;15.07;;
13435;SDS011;6790;49.520;8.504;2023-10-13T07:30:35;18.33;;;16.73;;
13435;SDS011;6790;49.520;8.504;2023-10-13T07:33:07;16.07;;;14.70;;
13435;SDS011;6790;49.520;8.504;2023-10-13T07:35:38;13.73;;;12.73;;
13435;SDS011;6790;49.520;8.504;2023-10-13T07:38:03;12.90;;;11.87;;
13435;SDS011;6790;49.520;8.504;2023-10-13T07:40:32;18.93;;;17.40;;
13435;SDS011;6790;49.520;8.504;2023-10-13T07:42:58;21.53;;;20.03;;
13435;SDS011;6790;49.520;8.504;2023-10-13T07:45:28;22.50;;;21.03;;
13435;SDS011;6790;49.520;8.504;2023-10-13T07:48:01;15.80;;;14.73;;
13435;SDS011;6790;49.520;8.504;2023-10-13T07:50:45;16.00;;;14.47;;
13435;SDS011;6790;49.520;8.504;2023-10-13T07:53:11;23.07;;;21.70;;
13435;SDS011;6790;49.520;8.504;2023-10-13T07:55:49;18.10;;;16.80;;
13435;SDS011;6790;49.520;8.504;2023-10-13T07:58:24;15.23;;;13.93;;
13435;SDS011;6790;49.520;8.504;2023-10-13T08:00:50;19.67;;;18.27;;
13435;SDS011;6790;49.520;8.504;2023-10-13T08:03:31;21.10;;;19.60;;
13435;SDS011;6790;49.520;8.504;2023-10-13T08:06:09;20.17;;;18.88;;
13435;SDS011;6790;49.520;8.504;2023-10-13T08:08:41;28.90;;;26.48;;
13435;SDS011;6790;49.520;8.504;2023-10-13T08:11:12;27.90;;;25.90;;
13435;SDS011;6790;49.520;8.504;2023-10-13T08:13:51;21.67;;;20.33;;
13435;SDS011;6790;49.520;8.504;2023-10-13T08:16:30;22.95;;;21.10;;
13435;SDS011;6790;49.520;8.504;2023-10-13T08:19:15;33.97;;;31.70;;
13435;SDS011;6790;49.520;8.504;2023-10-13T08:21:52;29.50;;;27.42;;
13435;SDS011;6790;49.520;8.504;2023-10-13T08:24:24;25.10;;;23.40;;
13435;SDS011;6790;49.520;8.504;2023-10-13T08:26:54;21.48;;;20.02;;
13435;SDS011;6790;49.520;8.504;2023-10-13T08:29:39;28.02;;;25.95;;
13435;SDS011;6790;49.520;8.504;2023-10-13T08:32:34;26.80;;;25.17;;
13435;SDS011;6790;49.520;8.504;2023-10-13T08:35:23;28.13;;;26.33;;
13435;SDS011;6790;49.520;8.504;2023-10-13T08:37:59;25.67;;;24.02;;
13435;SDS011;6790;49.520;8.504;2023-10-13T08:40:29;30.20;;;28.08;;
13435;SDS011;6790;49.520;8.504;2023-10-13T08:43:14;29.02;;;26.70;;
13435;SDS011;6790;49.520;8.504;2023-10-13T08:45:42;34.60;;;32.50;;
13435;SDS011;6790;49.520;8.504;2023-10-13T08:48:10;34.22;;;32.08;;
13435;SDS011;6790;49.520;8.504;2023-10-13T08:53:19;38.35;;;35.95;;
13435;SDS011;6790;49.520;8.504;2023-10-13T08:56:02;41.78;;;39.38;;
13435;SDS011;6790;49.520;8.504;2023-10-13T08:58:42;37.63;;;35.35;;
13435;SDS011;6790;49.520;8.504;2023-10-13T09:04:16;38.33;;;35.90;;
13435;SDS011;6790;49.520;8.504;2023-10-13T09:12:12;44.15;;;41.58;;
13435;SDS011;6790;49.520;8.504;2023-10-13T09:14:50;38.05;;;35.97;;
13435;SDS011;6790;49.520;8.504;2023-10-13T09:17:30;38.88;;;35.95;;
13435;SDS011;6790;49.520;8.504;2023-10-13T09:20:08;46.80;;;43.90;;
13435;SDS011;6790;49.520;8.504;2023-10-13T09:22:46;42.97;;;39.95;;
13435;SDS011;6790;49.520;8.504;2023-10-13T09:25:32;48.35;;;45.42;;
13435;SDS011;6790;49.520;8.504;2023-10-13T09:28:18;48.17;;;45.35;;
13435;SDS011;6790;49.520;8.504;2023-10-13T09:30:47;48.97;;;46.17;;
13435;SDS011;6790;49.520;8.504;2023-10-13T09:33:24;47.17;;;44.47;;
13435;SDS011;6790;49.520;8.504;2023-10-13T09:36:00;47.25;;;44.45;;
13435;SDS011;6790;49.520;8.504;2023-10-13T09:38:37;46.70;;;43.90;;
13435;SDS011;6790;49.520;8.504;2023-10-13T09:41:07;47.75;;;44.58;;
13435;SDS011;6790;49.520;8.504;2023-10-13T09:43:43;41.00;;;38.72;;
13435;SDS011;6790;49.520;8.504;2023-10-13T09:46:10;43.15;;;40.58;;
13435;SDS011;6790;49.520;8.504;2023-10-13T09:48:48;40.45;;;37.97;;
13435;SDS011;6790;49.520;8.504;2023-10-13T09:51:29;50.63;;;47.65;;
13435;SDS011;6790;49.520;8.504;2023-10-13T09:54:04;51.13;;;48.08;;
13435;SDS011;6790;49.520;8.504;2023-10-13T09:57:01;41.38;;;38.90;;
13435;SDS011;6790;49.520;8.504;2023-10-13T09:59:44;55.08;;;51.92;;
13435;SDS011;6790;49.520;8.504;2023-10-13T10:02:17;42.55;;;40.10;;
13435;SDS011;6790;49.520;8.504;2023-10-13T10:04:53;46.70;;;43.88;;
13435;SDS011;6790;49.520;8.504;2023-10-13T10:07:39;48.80;;;45.92;;
13435;SDS011;6790;49.520;8.504;2023-10-13T10:10:05;44.97;;;42.13;;
13435;SDS011;6790;49.520;8.504;2023-10-13T10:15:34;49.05;;;46.25;;
13435;SDS011;6790;49.520;8.504;2023-10-13T10:18:17;48.58;;;45.72;;
13435;SDS011;6790;49.520;8.504;2023-10-13T10:20:48;48.58;;;45.85;;
13435;SDS011;6790;49.520;8.504;2023-10-13T10:23:28;50.65;;;47.70;;
13435;SDS011;6790;49.520;8.504;2023-10-13T10:25:55;46.72;;;43.88;;
13435;SDS011;6790;49.520;8.504;2023-10-13T10:28:37;52.90;;;49.50;;
13435;SDS011;6790;49.520;8.504;2023-10-13T10:31:04;53.20;;;50.30;;
13435;SDS011;6790;49.520;8.504;2023-10-13T10:33:34;53.63;;;50.40;;
13435;SDS011;6790;49.520;8.504;2023-10-13T10:36:00;57.47;;;53.78;;
13435;SDS011;6790;49.520;8.504;2023-10-13T10:38:26;52.45;;;49.38;;
13435;SDS011;6790;49.520;8.504;2023-10-13T10:41:00;55.38;;;52.15;;
13435;SDS011;6790;49.520;8.504;2023-10-13T10:43:29;46.15;;;43.53;;
13435;SDS011;6790;49.520;8.504;2023-10-13T10:46:08;45.80;;;43.13;;
13435;SDS011;6790;49.520;8.504;2023-10-13T10:48:36;45.35;;;42.80;;
13435;SDS011;6790;49.520;8.504;2023-10-13T10:51:03;47.30;;;44.65;;
13435;SDS011;6790;49.520;8.504;2023-10-13T10:53:39;48.85;;;45.88;;
13435;SDS011;6790;49.520;8.504;2023-10-13T10:56:11;46.90;;;44.05;;
13435;SDS011;6790;49.520;8.504;2023-10-13T10:58:57;49.53;;;46.65;;
13435;SDS011;6790;49.520;8.504;2023-10-13T11:01:25;50.15;;;47.13;;
13435;SDS011;6790;49.520;8.504;2023-10-13T11:04:03;52.80;;;49.78;;
13435;SDS011;6790;49.520;8.504;2023-10-13T11:09:14;49.10;;;46.15;;
13435;SDS011;6790;49.520;8.504;2023-10-13T11:14:39;46.90;;;44.05;;
13435;SDS011;6790;49.520;8.504;2023-10-13T11:17:04;42.60;;;40.03;;
13435;SDS011;6790;49.520;8.504;2023-10-13T11:19:42;41.55;;;39.08;;
13435;SDS011;6790;49.520;8.504;2023-10-13T11:22:11;46.78;;;44.13;;
13435;SDS011;6790;49.520;8.504;2023-10-13T11:24:54;54.35;;;50.92;;
13435;SDS011;6790;49.520;8.504;2023-10-13T11:27:27;49.30;;;46.10;;
13435;SDS011;6790;49.520;8.504;2023-10-13T11:30:23;51.22;;;48.30;;
13435;SDS011;6790;49.520;8.504;2023-10-13T11:33:07;48.35;;;45.47;;
13435;SDS011;6790;49.520;8.504;2023-10-13T11:35:36;44.13;;;41.72;;
13435;SDS011;6790;49.520;8.504;2023-10-13T11:38:19;44.90;;;42.28;;
13435;SDS011;6790;49.520;8.504;2023-10-13T11:40:53;51.45;;;48.42;;
13435;SDS011;6790;49.520;8.504;2023-10-13T11:43:35;46.38;;;43.75;;
13435;SDS011;6790;49.520;8.504;2023-10-13T11:46:24;53.17;;;50.17;;
13435;SDS011;6790;49.520;8.504;2023-10-13T11:49:00;52.72;;;49.80;;
13435;SDS011;6790;49.520;8.504;2023-10-13T11:51:44;47.70;;;44.88;;
13435;SDS011;6790;49.520;8.504;2023-10-13T11:54:13;46.78;;;44.22;;
13435;SDS011;6790;49.520;8.504;2023-10-13T11:56:46;50.17;;;47.28;;
13435;SDS011;6790;49.520;8.504;2023-10-13T11:59:12;51.85;;;48.95;;
13435;SDS011;6790;49.520;8.504;2023-10-13T12:01:49;52.03;;;49.10;;
13435;SDS011;6790;49.520;8.504;2023-10-13T12:04:34;44.15;;;41.58;;
13435;SDS011;6790;49.520;8.504;2023-10-13T12:07:16;47.58;;;44.53;;
13435;SDS011;6790;49.520;8.504;2023-10-13T12:09:47;48.20;;;45.35;;
13435;SDS011;6790;49.520;8.504;2023-10-13T12:12:28;46.83;;;44.00;;
13435;SDS011;6790;49.520;8.504;2023-10-13T12:14:56;48.47;;;45.78;;
13435;SDS011;6790;49.520;8.504;2023-10-13T12:17:22;43.78;;;40.70;;
13435;SDS011;6790;49.520;8.504;2023-10-13T12:20:03;44.17;;;41.47;;
13435;SDS011;6790;49.520;8.504;2023-10-13T12:22:38;49.47;;;46.28;;
13435;SDS011;6790;49.520;8.504;2023-10-13T12:25:05;47.78;;;44.78;;
13435;SDS011;6790;49.520;8.504;2023-10-13T12:27:49;49.17;;;46.35;;
13435;SDS011;6790;49.520;8.504;2023-10-13T12:30:21;55.35;;;52.05;;
13435;SDS011;6790;49.520;8.504;2023-10-13T12:33:22;46.15;;;43.38;;
13435;SDS011;6790;49.520;8.504;2023-10-13T12:35:59;44.35;;;41.72;;
13435;SDS011;6790;49.520;8.504;2023-10-13T12:38:30;47.60;;;44.55;;
13435;SDS011;6790;49.520;8.504;2023-10-13T12:41:04;49.55;;;46.47;;
13435;SDS011;6790;49.520;8.504;2023-10-13T12:43:49;51.83;;;48.78;;
13435;SDS011;6790;49.520;8.504;2023-10-13T12:46:33;45.65;;;43.05;;
13435;SDS011;6790;49.520;8.504;2023-10-13T12:49:17;50.08;;;46.85;;
13435;SDS011;6790;49.520;8.504;2023-10-13T12:52:03;47.63;;;44.78;;
13435;SDS011;6790;49.520;8.504;2023-10-13T12:54:29;45.17;;;42.47;;
13435;SDS011;6790;49.520;8.504;2023-10-13T12:57:00;50.30;;;46.97;;
13435;SDS011;6790;49.520;8.504;2023-10-13T12:59:27;47.85;;;45.03;;
13435;SDS011;6790;49.520;8.504;2023-10-13T13:01:53;43.55;;;41.00;;
13435;SDS011;6790;49.520;8.504;2023-10-13T13:04:19;45.80;;;43.05;;
13435;SDS011;6790;49.520;8.504;2023-10-13T13:06:51;48.10;;;45.35;;
13435;SDS011;6790;49.520;8.504;2023-10-13T13:09:18;47.67;;;44.88;;
13435;SDS011;6790;49.520;8.504;2023-10-13T13:11:51;46.55;;;43.83;;
13435;SDS011;6790;49.520;8.504;2023-10-13T13:14:22;49.58;;;46.70;;
13435;SDS011;6790;49.520;8.504;2023-10-13T13:16:54;41.38;;;38.63;;
13435;SDS011;6790;49.520;8.504;2023-10-13T13:19:30;46.40;;;43.63;;
13435;SDS011;6790;49.520;8.504;2023-10-13T13:22:04;50.22;;;47.45;;
13435;SDS011;6790;49.520;8.504;2023-10-13T13:24:36;52.42;;;49.15;;
13435;SDS011;6790;49.520;8.504;2023-10-13T13:27:13;49.08;;;46.10;;
13435;SDS011;6790;49.520;8.504;2023-10-13T13:29:40;46.30;;;43.45;;
13435;SDS011;6790;49.520;8.504;2023-10-13T13:32:06;42.13;;;39.35;;
13435;SDS011;6790;49.520;8.504;2023-10-13T13:34:42;49.10;;;46.17;;
13435;SDS011;6790;49.520;8.504;2023-10-13T13:37:09;48.55;;;45.72;;
13435;SDS011;6790;49.520;8.504;2023-10-13T13:39:37;42.42;;;39.92;;
13435;SDS011;6790;49.520;8.504;2023-10-13T13:42:10;48.38;;;45.63;;
13435;SDS011;6790;49.520;8.504;2023-10-13T13:44:42;42.63;;;40.22;;
13435;SDS011;6790;49.520;8.504;2023-10-13T13:47:14;44.10;;;41.53;;
13435;SDS011;6790;49.520;8.504;2023-10-13T13:49:40;48.75;;;46.08;;
13435;SDS011;6790;49.520;8.504;2023-10-13T13:52:11;46.25;;;43.47;;
13435;SDS011;6790;49.520;8.504;2023-10-13T13:54:43;44.70;;;41.83;;
13435;SDS011;6790;49.520;8.504;2023-10-13T13:57:09;41.85;;;39.22;;
13435;SDS011;6790;49.520;8.504;2023-10-13T13:59:34;43.88;;;40.90;;
13435;SDS011;6790;49.520;8.504;2023-10-13T14:02:01;48.88;;;46.17;;
13435;SDS011;6790;49.520;8.504;2023-10-13T14:04:44;43.92;;;41.28;;
13435;SDS011;6790;49.520;8.504;2023-10-13T14:07:16;53.22;;;50.20;;
13435;SDS011;6790;49.520;8.504;2023-10-13T14:09:49;44.70;;;42.08;;
13435;SDS011;6790;49.520;8.504;2023-10-13T14:12:18;42.20;;;39.85;;
13435;SDS011;6790;49.520;8.504;2023-10-13T14:15:17;44.55;;;41.92;;
13435;SDS011;6790;49.520;8.504;2023-10-13T14:17:48;45.53;;;42.85;;
13435;SDS011;6790;49.520;8.504;2023-10-13T14:20:14;43.67;;;41.08;;
13435;SDS011;6790;49.520;8.504;2023-10-13T14:22:44;46.92;;;44.08;;
13435;SDS011;6790;49.520;8.504;2023-10-13T14:25:13;53.22;;;50.22;;
13435;SDS011;6790;49.520;8.504;2023-10-13T14:27:42;43.45;;;40.85;;
13435;SDS011;6790;49.520;8.504;2023-10-13T14:30:08;43.78;;;41.28;;
13435;SDS011;6790;49.520;8.504;2023-10-13T14:32:34;51.00;;;47.72;;
13435;SDS011;6790;49.520;8.504;2023-10-13T14:35:05;42.95;;;40.00;;
13435;SDS011;6790;49.520;8.504;2023-10-13T14:37:39;45.40;;;42.80;;
13435;SDS011;6790;49.520;8.504;2023-10-13T14:40:06;46.22;;;43.17;;
13435;SDS011;6790;49.520;8.504;2023-10-13T14:42:38;46.78;;;44.08;;
13435;SDS011;6790;49.520;8.504;2023-10-13T14:45:05;52.40;;;49.30;;
13435;SDS011;6790;49.520;8.504;2023-10-13T14:47:39;47.95;;;45.13;;
13435;SDS011;6790;49.520;8.504;2023-10-13T14:50:06;47.58;;;44.83;;
13435;SDS011;6790;49.520;8.504;2023-10-13T14:52:33;48.15;;;45.13;;
13435;SDS011;6790;49.520;8.504;2023-10-13T14:54:59;48.05;;;45.13;;
13435;SDS011;6790;49.520;8.504;2023-10-13T14:57:24;52.50;;;49.45;;
13435;SDS011;6790;49.520;8.504;2023-10-13T14:59:54;45.60;;;42.80;;
13435;SDS011;6790;49.520;8.504;2023-10-13T15:02:20;45.67;;;42.63;;
13435;SDS011;6790;49.520;8.504;2023-10-13T15:04:47;42.55;;;40.10;;
13435;SDS011;6790;49.520;8.504;2023-10-13T15:07:13;49.65;;;46.72;;
13435;SDS011;6790;49.520;8.504;2023-10-13T15:09:43;44.90;;;42.28;;
13435;SDS011;6790;49.520;8.504;2023-10-13T15:12:10;40.25;;;37.47;;
13435;SDS011;6790;49.520;8.504;2023-10-13T15:14:37;45.63;;;43.08;;
13435;SDS011;6790;49.520;8.504;2023-10-13T15:17:04;49.78;;;44.50;;
13435;SDS011;6790;49.520;8.504;2023-10-13T15:19:34;47.42;;;44.58;;
13435;SDS011;6790;49.520;8.504;2023-10-13T15:22:08;53.25;;;50.03;;
13435;SDS011;6790;49.520;8.504;2023-10-13T15:24:41;49.58;;;46.67;;
13435;SDS011;6790;49.520;8.504;2023-10-13T15:27:22;41.60;;;39.10;;
13435;SDS011;6790;49.520;8.504;2023-10-13T15:29:48;45.95;;;43.33;;
13435;SDS011;6790;49.520;8.504;2023-10-13T15:32:15;50.92;;;48.05;;
13435;SDS011;6790;49.520;8.504;2023-10-13T15:35:00;51.65;;;48.70;;
13435;SDS011;6790;49.520;8.504;2023-10-13T15:37:25;45.53;;;42.75;;
13435;SDS011;6790;49.520;8.504;2023-10-13T15:39:52;49.88;;;47.10;;
13435;SDS011;6790;49.520;8.504;2023-10-13T15:42:18;47.65;;;44.85;;
13435;SDS011;6790;49.520;8.504;2023-10-13T15:44:46;49.55;;;46.50;;
13435;SDS011;6790;49.520;8.504;2023-10-13T15:47:11;46.35;;;43.67;;